sensor_id;sensor_type;location;lat;lon;timestamp;P1;durP1;ratioP1;P2;durP2;ratioP2
5456;SDS011;2751;49.802;9.944;2023-07-31T00:02:02;11.63;;;11.03;;
5456;SDS011;2751;49.802;9.944;2023-07-31T00:04:29;11.73;;;11.03;;
5456;SDS011;2751;49.802;9.944;2023-07-31T00:06:55;12.03;;;11.33;;
5456;SDS011;2751;49.802;9.944;2023-07-31T00:09:22;11.90;;;11.20;;
5456;SDS011;2751;49.802;9.944;2023-07-31T00:11:49;12.83;;;11.50;;
5456;SDS011;2751;49.802;9.944;2023-07-31T00:14:16;12.00;;;11.13;;
5456;SDS011;2751;49.802;9.944;2023-07-31T00:16:44;12.60;;;11.50;;
5456;SDS011;2751;49.802;9.944;2023-07-31T00:19:11;11.90;;;11.00;;
5456;SDS011;2751;49.802;9.944;2023-07-31T00:21:38;11.47;;;10.77;;
5456;SDS011;2751;49.802;9.944;2023-07-31T00:24:05;11.37;;;10.80;;
5456;SDS011;2751;49.802;9.944;2023-07-31T00:26:32;11.93;;;11.23;;
5456;SDS011;2751;49.802;9.944;2023-07-31T00:28:58;11.50;;;10.80;;
5456;SDS011;2751;49.802;9.944;2023-07-31T00:31:24;11.00;;;10.27;;
5456;SDS011;2751;49.802;9.944;2023-07-31T00:33:53;10.30;;;9.70;;
5456;SDS011;2751;49.802;9.944;2023-07-31T00:36:20;12.23;;;11.53;;
5456;SDS011;2751;49.802;9.944;2023-07-31T00:38:47;12.30;;;11.50;;
5456;SDS011;2751;49.802;9.944;2023-07-31T00:41:14;11.93;;;11.10;;
5456;SDS011;2751;49.802;9.944;2023-07-31T00:43:41;12.50;;;11.50;;
5456;SDS011;2751;49.802;9.944;2023-07-31T00:46:07;11.63;;;10.90;;
5456;SDS011;2751;49.802;9.944;2023-07-31T00:48:35;12.20;;;11.33;;
5456;SDS011;2751;49.802;9.944;2023-07-31T00:51:04;12.53;;;11.57;;
5456;SDS011;2751;49.802;9.944;2023-07-31T00:53:32;12.40;;;11.60;;
5456;SDS011;2751;49.802;9.944;2023-07-31T00:56:00;11.80;;;11.00;;
5456;SDS011;2751;49.802;9.944;2023-07-31T00:58:27;12.23;;;11.63;;
5456;SDS011;2751;49.802;9.944;2023-07-31T01:00:53;13.07;;;12.07;;
5456;SDS011;2751;49.802;9.944;2023-07-31T01:03:20;13.13;;;12.17;;
5456;SDS011;2751;49.802;9.944;2023-07-31T01:05:49;13.70;;;12.53;;
5456;SDS011;2751;49.802;9.944;2023-07-31T01:08:27;12.43;;;11.63;;
5456;SDS011;2751;49.802;9.944;2023-07-31T01:11:00;12.90;;;12.20;;
5456;SDS011;2751;49.802;9.944;2023-07-31T01:13:31;13.30;;;12.20;;
5456;SDS011;2751;49.802;9.944;2023-07-31T01:15:59;14.60;;;13.37;;
5456;SDS011;2751;49.802;9.944;2023-07-31T01:18:25;12.87;;;11.90;;
5456;SDS011;2751;49.802;9.944;2023-07-31T01:20:54;12.77;;;11.97;;
5456;SDS011;2751;49.802;9.944;2023-07-31T01:23:41;12.90;;;11.93;;
5456;SDS011;2751;49.802;9.944;2023-07-31T01:26:26;12.13;;;11.23;;
5456;SDS011;2751;49.802;9.944;2023-07-31T01:29:00;10.67;;;10.07;;
5456;SDS011;2751;49.802;9.944;2023-07-31T01:31:31;10.43;;;9.80;;
5456;SDS011;2751;49.802;9.944;2023-07-31T01:34:00;12.73;;;11.93;;
5456;SDS011;2751;49.802;9.944;2023-07-31T01:36:27;11.90;;;11.10;;
5456;SDS011;2751;49.802;9.944;2023-07-31T01:38:57;12.60;;;11.50;;
5456;SDS011;2751;49.802;9.944;2023-07-31T01:41:26;12.53;;;11.60;;
5456;SDS011;2751;49.802;9.944;2023-07-31T01:43:53;11.97;;;11.13;;
5456;SDS011;2751;49.802;9.944;2023-07-31T01:46:20;12.60;;;11.80;;
5456;SDS011;2751;49.802;9.944;2023-07-31T01:48:47;12.80;;;11.97;;
5456;SDS011;2751;49.802;9.944;2023-07-31T01:51:14;12.17;;;11.47;;
5456;SDS011;2751;49.802;9.944;2023-07-31T01:53:41;12.00;;;11.23;;
5456;SDS011;2751;49.802;9.944;2023-07-31T01:56:08;11.50;;;10.90;;
5456;SDS011;2751;49.802;9.944;2023-07-31T01:58:36;12.40;;;11.40;;
5456;SDS011;2751;49.802;9.944;2023-07-31T02:01:03;11.87;;;11.07;;
5456;SDS011;2751;49.802;9.944;2023-07-31T02:03:30;11.00;;;10.20;;
5456;SDS011;2751;49.802;9.944;2023-07-31T02:05:56;10.57;;;9.77;;
5456;SDS011;2751;49.802;9.944;2023-07-31T02:08:23;11.10;;;10.40;;
5456;SDS011;2751;49.802;9.944;2023-07-31T02:10:51;12.50;;;11.70;;
5456;SDS011;2751;49.802;9.944;2023-07-31T02:13:18;12.13;;;11.33;;
5456;SDS011;2751;49.802;9.944;2023-07-31T02:15:46;12.00;;;11.30;;
5456;SDS011;2751;49.802;9.944;2023-07-31T02:18:13;12.50;;;11.57;;
5456;SDS011;2751;49.802;9.944;2023-07-31T02:20:40;11.73;;;11.03;;
5456;SDS011;2751;49.802;9.944;2023-07-31T02:23:07;12.20;;;11.40;;
5456;SDS011;2751;49.802;9.944;2023-07-31T02:25:34;12.37;;;11.60;;
5456;SDS011;2751;49.802;9.944;2023-07-31T02:28:01;12.07;;;11.37;;
5456;SDS011;2751;49.802;9.944;2023-07-31T02:30:28;12.37;;;11.67;;
5456;SDS011;2751;49.802;9.944;2023-07-31T02:32:56;11.80;;;11.10;;
5456;SDS011;2751;49.802;9.944;2023-07-31T02:35:23;11.60;;;10.87;;
5456;SDS011;2751;49.802;9.944;2023-07-31T02:37:50;12.10;;;11.10;;
5456;SDS011;2751;49.802;9.944;2023-07-31T02:40:17;11.60;;;10.90;;
5456;SDS011;2751;49.802;9.944;2023-07-31T02:42:44;11.53;;;10.93;;
5456;SDS011;2751;49.802;9.944;2023-07-31T02:45:10;11.93;;;11.23;;
5456;SDS011;2751;49.802;9.944;2023-07-31T02:47:38;11.20;;;10.60;;
5456;SDS011;2751;49.802;9.944;2023-07-31T02:50:06;12.07;;;11.30;;
5456;SDS011;2751;49.802;9.944;2023-07-31T02:52:34;12.83;;;11.87;;
5456;SDS011;2751;49.802;9.944;2023-07-31T02:55:00;12.07;;;11.17;;
5456;SDS011;2751;49.802;9.944;2023-07-31T02:57:27;12.40;;;11.50;;
5456;SDS011;2751;49.802;9.944;2023-07-31T02:59:54;12.63;;;11.93;;
5456;SDS011;2751;49.802;9.944;2023-07-31T03:02:21;12.07;;;11.37;;
5456;SDS011;2751;49.802;9.944;2023-07-31T03:04:48;11.23;;;10.53;;
5456;SDS011;2751;49.802;9.944;2023-07-31T03:07:16;13.13;;;11.93;;
5456;SDS011;2751;49.802;9.944;2023-07-31T03:09:43;11.43;;;10.73;;
5456;SDS011;2751;49.802;9.944;2023-07-31T03:12:10;11.33;;;10.53;;
5456;SDS011;2751;49.802;9.944;2023-07-31T03:14:37;11.43;;;10.63;;
5456;SDS011;2751;49.802;9.944;2023-07-31T03:17:04;11.33;;;10.53;;
5456;SDS011;2751;49.802;9.944;2023-07-31T03:19:31;12.10;;;11.40;;
5456;SDS011;2751;49.802;9.944;2023-07-31T03:21:58;10.27;;;9.57;;
5456;SDS011;2751;49.802;9.944;2023-07-31T03:24:28;11.47;;;10.47;;
5456;SDS011;2751;49.802;9.944;2023-07-31T03:26:56;11.37;;;10.27;;
5456;SDS011;2751;49.802;9.944;2023-07-31T03:29:23;10.97;;;10.17;;
5456;SDS011;2751;49.802;9.944;2023-07-31T03:31:50;11.27;;;10.43;;
5456;SDS011;2751;49.802;9.944;2023-07-31T03:34:17;12.13;;;10.93;;
5456;SDS011;2751;49.802;9.944;2023-07-31T03:36:43;11.53;;;10.83;;
5456;SDS011;2751;49.802;9.944;2023-07-31T03:39:10;11.00;;;10.30;;
5456;SDS011;2751;49.802;9.944;2023-07-31T03:41:39;10.97;;;10.27;;
5456;SDS011;2751;49.802;9.944;2023-07-31T03:44:05;11.43;;;10.63;;
5456;SDS011;2751;49.802;9.944;2023-07-31T03:46:32;11.10;;;10.20;;
5456;SDS011;2751;49.802;9.944;2023-07-31T03:49:01;11.53;;;10.40;;
5456;SDS011;2751;49.802;9.944;2023-07-31T03:51:27;11.10;;;10.30;;
5456;SDS011;2751;49.802;9.944;2023-07-31T03:53:54;11.00;;;10.30;;
5456;SDS011;2751;49.802;9.944;2023-07-31T03:56:21;11.30;;;10.40;;
5456;SDS011;2751;49.802;9.944;2023-07-31T03:58:50;10.70;;;10.00;;
5456;SDS011;2751;49.802;9.944;2023-07-31T04:01:16;10.57;;;10.00;;
5456;SDS011;2751;49.802;9.944;2023-07-31T04:03:44;11.00;;;10.30;;
5456;SDS011;2751;49.802;9.944;2023-07-31T04:06:11;11.20;;;10.40;;
5456;SDS011;2751;49.802;9.944;2023-07-31T04:08:38;10.63;;;10.07;;
5456;SDS011;2751;49.802;9.944;2023-07-31T04:11:05;10.43;;;9.83;;
5456;SDS011;2751;49.802;9.944;2023-07-31T04:13:32;11.60;;;10.77;;
5456;SDS011;2751;49.802;9.944;2023-07-31T04:16:00;10.77;;;10.17;;
5456;SDS011;2751;49.802;9.944;2023-07-31T04:18:27;10.03;;;9.53;;
5456;SDS011;2751;49.802;9.944;2023-07-31T04:20:56;9.87;;;9.30;;
5456;SDS011;2751;49.802;9.944;2023-07-31T04:23:23;11.27;;;10.27;;
5456;SDS011;2751;49.802;9.944;2023-07-31T04:25:50;11.20;;;10.40;;
5456;SDS011;2751;49.802;9.944;2023-07-31T04:28:17;14.73;;;10.70;;
5456;SDS011;2751;49.802;9.944;2023-07-31T04:30:44;11.77;;;10.80;;
5456;SDS011;2751;49.802;9.944;2023-07-31T04:33:12;13.50;;;10.80;;
5456;SDS011;2751;49.802;9.944;2023-07-31T04:35:39;11.27;;;10.43;;
5456;SDS011;2751;49.802;9.944;2023-07-31T04:38:06;12.03;;;11.00;;
5456;SDS011;2751;49.802;9.944;2023-07-31T04:40:33;10.93;;;10.13;;
5456;SDS011;2751;49.802;9.944;2023-07-31T04:43:00;11.27;;;10.47;;
5456;SDS011;2751;49.802;9.944;2023-07-31T04:45:27;12.50;;;11.60;;
5456;SDS011;2751;49.802;9.944;2023-07-31T04:47:54;12.53;;;11.60;;
5456;SDS011;2751;49.802;9.944;2023-07-31T04:50:22;11.83;;;11.10;;
5456;SDS011;2751;49.802;9.944;2023-07-31T04:52:49;11.70;;;10.90;;
5456;SDS011;2751;49.802;9.944;2023-07-31T04:55:16;11.70;;;10.97;;
5456;SDS011;2751;49.802;9.944;2023-07-31T04:57:43;11.80;;;11.00;;
5456;SDS011;2751;49.802;9.944;2023-07-31T05:00:10;11.00;;;10.30;;
5456;SDS011;2751;49.802;9.944;2023-07-31T05:02:37;11.90;;;10.70;;
5456;SDS011;2751;49.802;9.944;2023-07-31T05:05:05;11.87;;;10.90;;
5456;SDS011;2751;49.802;9.944;2023-07-31T05:07:33;10.93;;;10.23;;
5456;SDS011;2751;49.802;9.944;2023-07-31T05:10:00;9.83;;;9.20;;
5456;SDS011;2751;49.802;9.944;2023-07-31T05:12:27;10.83;;;10.13;;
5456;SDS011;2751;49.802;9.944;2023-07-31T05:14:54;12.00;;;10.97;;
5456;SDS011;2751;49.802;9.944;2023-07-31T05:17:20;10.43;;;9.73;;
5456;SDS011;2751;49.802;9.944;2023-07-31T05:19:48;12.10;;;11.30;;
5456;SDS011;2751;49.802;9.944;2023-07-31T05:22:14;11.30;;;10.53;;
5456;SDS011;2751;49.802;9.944;2023-07-31T05:24:43;11.10;;;10.30;;
5456;SDS011;2751;49.802;9.944;2023-07-31T05:27:10;10.47;;;9.90;;
5456;SDS011;2751;49.802;9.944;2023-07-31T05:29:37;12.43;;;11.63;;
5456;SDS011;2751;49.802;9.944;2023-07-31T05:32:05;11.83;;;10.60;;
5456;SDS011;2751;49.802;9.944;2023-07-31T05:34:32;11.53;;;10.77;;
5456;SDS011;2751;49.802;9.944;2023-07-31T05:36:59;11.27;;;10.40;;
5456;SDS011;2751;49.802;9.944;2023-07-31T05:39:26;12.43;;;11.63;;
5456;SDS011;2751;49.802;9.944;2023-07-31T05:41:54;11.60;;;10.70;;
5456;SDS011;2751;49.802;9.944;2023-07-31T05:44:21;12.00;;;11.00;;
5456;SDS011;2751;49.802;9.944;2023-07-31T05:46:48;12.23;;;11.33;;
5456;SDS011;2751;49.802;9.944;2023-07-31T05:49:15;11.97;;;11.10;;
5456;SDS011;2751;49.802;9.944;2023-07-31T05:51:42;11.23;;;10.50;;
5456;SDS011;2751;49.802;9.944;2023-07-31T05:54:09;11.20;;;10.50;;
5456;SDS011;2751;49.802;9.944;2023-07-31T05:56:35;11.47;;;10.30;;
5456;SDS011;2751;49.802;9.944;2023-07-31T05:59:04;11.43;;;10.60;;
5456;SDS011;2751;49.802;9.944;2023-07-31T06:01:31;11.03;;;10.33;;
5456;SDS011;2751;49.802;9.944;2023-07-31T06:03:58;10.60;;;9.90;;
5456;SDS011;2751;49.802;9.944;2023-07-31T06:06:25;11.27;;;10.30;;
5456;SDS011;2751;49.802;9.944;2023-07-31T06:08:52;11.43;;;10.63;;
5456;SDS011;2751;49.802;9.944;2023-07-31T06:11:19;9.97;;;9.47;;
5456;SDS011;2751;49.802;9.944;2023-07-31T06:13:46;10.90;;;10.30;;
5456;SDS011;2751;49.802;9.944;2023-07-31T06:16:15;12.47;;;11.60;;
5456;SDS011;2751;49.802;9.944;2023-07-31T06:18:42;11.57;;;10.90;;
5456;SDS011;2751;49.802;9.944;2023-07-31T06:21:09;11.90;;;11.00;;
5456;SDS011;2751;49.802;9.944;2023-07-31T06:23:36;11.10;;;10.30;;
5456;SDS011;2751;49.802;9.944;2023-07-31T06:26:03;10.90;;;10.20;;
5456;SDS011;2751;49.802;9.944;2023-07-31T06:28:31;11.07;;;10.23;;
5456;SDS011;2751;49.802;9.944;2023-07-31T06:30:58;10.87;;;10.27;;
5456;SDS011;2751;49.802;9.944;2023-07-31T06:33:27;11.63;;;10.53;;
5456;SDS011;2751;49.802;9.944;2023-07-31T06:35:54;11.30;;;10.60;;
5456;SDS011;2751;49.802;9.944;2023-07-31T06:38:22;11.20;;;10.40;;
5456;SDS011;2751;49.802;9.944;2023-07-31T06:40:50;10.97;;;10.27;;
5456;SDS011;2751;49.802;9.944;2023-07-31T06:43:18;11.07;;;10.43;;
5456;SDS011;2751;49.802;9.944;2023-07-31T06:45:45;12.03;;;11.33;;
5456;SDS011;2751;49.802;9.944;2023-07-31T06:48:13;12.47;;;11.40;;
5456;SDS011;2751;49.802;9.944;2023-07-31T06:50:41;9.80;;;9.30;;
5456;SDS011;2751;49.802;9.944;2023-07-31T06:53:08;11.73;;;10.93;;
5456;SDS011;2751;49.802;9.944;2023-07-31T06:55:35;12.60;;;11.70;;
5456;SDS011;2751;49.802;9.944;2023-07-31T06:58:02;12.17;;;11.30;;
5456;SDS011;2751;49.802;9.944;2023-07-31T07:00:29;12.37;;;11.47;;
5456;SDS011;2751;49.802;9.944;2023-07-31T07:02:57;12.53;;;11.60;;
5456;SDS011;2751;49.802;9.944;2023-07-31T07:05:24;12.63;;;11.77;;
5456;SDS011;2751;49.802;9.944;2023-07-31T07:07:52;11.43;;;10.80;;
5456;SDS011;2751;49.802;9.944;2023-07-31T07:10:19;11.80;;;11.00;;
5456;SDS011;2751;49.802;9.944;2023-07-31T07:12:46;12.20;;;11.50;;
5456;SDS011;2751;49.802;9.944;2023-07-31T07:15:14;13.37;;;12.47;;
5456;SDS011;2751;49.802;9.944;2023-07-31T07:17:41;13.20;;;12.20;;
5456;SDS011;2751;49.802;9.944;2023-07-31T07:20:08;13.37;;;12.10;;
5456;SDS011;2751;49.802;9.944;2023-07-31T07:22:35;15.13;;;13.47;;
5456;SDS011;2751;49.802;9.944;2023-07-31T07:25:04;12.60;;;11.70;;
5456;SDS011;2751;49.802;9.944;2023-07-31T07:27:32;12.30;;;11.50;;
5456;SDS011;2751;49.802;9.944;2023-07-31T07:30:01;11.67;;;10.87;;
5456;SDS011;2751;49.802;9.944;2023-07-31T07:32:28;14.67;;;13.20;;
5456;SDS011;2751;49.802;9.944;2023-07-31T07:34:55;11.20;;;10.50;;
5456;SDS011;2751;49.802;9.944;2023-07-31T07:37:22;12.80;;;11.90;;
5456;SDS011;2751;49.802;9.944;2023-07-31T07:39:49;12.37;;;11.57;;
5456;SDS011;2751;49.802;9.944;2023-07-31T07:42:18;13.33;;;11.90;;
5456;SDS011;2751;49.802;9.944;2023-07-31T07:44:45;12.33;;;11.63;;
5456;SDS011;2751;49.802;9.944;2023-07-31T07:47:12;12.90;;;12.00;;
5456;SDS011;2751;49.802;9.944;2023-07-31T07:49:39;13.23;;;12.33;;
5456;SDS011;2751;49.802;9.944;2023-07-31T07:52:06;12.43;;;11.53;;
5456;SDS011;2751;49.802;9.944;2023-07-31T07:54:33;12.53;;;11.83;;
5456;SDS011;2751;49.802;9.944;2023-07-31T07:57:00;13.27;;;12.47;;
5456;SDS011;2751;49.802;9.944;2023-07-31T07:59:28;14.17;;;13.10;;
5456;SDS011;2751;49.802;9.944;2023-07-31T08:01:55;14.00;;;13.03;;
5456;SDS011;2751;49.802;9.944;2023-07-31T08:04:22;12.87;;;11.97;;
5456;SDS011;2751;49.802;9.944;2023-07-31T08:06:49;12.30;;;11.70;;
5456;SDS011;2751;49.802;9.944;2023-07-31T08:09:16;12.90;;;12.00;;
5456;SDS011;2751;49.802;9.944;2023-07-31T08:11:43;12.97;;;12.07;;
5456;SDS011;2751;49.802;9.944;2023-07-31T08:14:10;13.73;;;12.70;;
5456;SDS011;2751;49.802;9.944;2023-07-31T08:16:38;13.03;;;12.13;;
5456;SDS011;2751;49.802;9.944;2023-07-31T08:19:05;13.83;;;12.47;;
5456;SDS011;2751;49.802;9.944;2023-07-31T08:21:32;12.90;;;12.00;;
5456;SDS011;2751;49.802;9.944;2023-07-31T08:23:59;12.63;;;11.63;;
5456;SDS011;2751;49.802;9.944;2023-07-31T08:26:25;13.47;;;12.20;;
5456;SDS011;2751;49.802;9.944;2023-07-31T08:28:52;13.63;;;12.70;;
5456;SDS011;2751;49.802;9.944;2023-07-31T08:31:19;12.60;;;11.87;;
5456;SDS011;2751;49.802;9.944;2023-07-31T08:33:47;13.63;;;12.53;;
5456;SDS011;2751;49.802;9.944;2023-07-31T08:36:14;14.27;;;13.17;;
5456;SDS011;2751;49.802;9.944;2023-07-31T08:38:41;13.37;;;12.43;;
5456;SDS011;2751;49.802;9.944;2023-07-31T08:41:08;13.10;;;12.30;;
5456;SDS011;2751;49.802;9.944;2023-07-31T08:43:35;13.20;;;12.30;;
5456;SDS011;2751;49.802;9.944;2023-07-31T08:46:04;12.53;;;11.63;;
5456;SDS011;2751;49.802;9.944;2023-07-31T08:48:31;11.83;;;11.03;;
5456;SDS011;2751;49.802;9.944;2023-07-31T08:51:00;12.70;;;11.70;;
5456;SDS011;2751;49.802;9.944;2023-07-31T08:53:26;12.90;;;12.10;;
5456;SDS011;2751;49.802;9.944;2023-07-31T08:55:53;13.50;;;12.30;;
5456;SDS011;2751;49.802;9.944;2023-07-31T08:58:22;13.30;;;12.23;;
5456;SDS011;2751;49.802;9.944;2023-07-31T09:00:51;13.10;;;12.10;;
5456;SDS011;2751;49.802;9.944;2023-07-31T09:03:21;13.40;;;12.50;;
5456;SDS011;2751;49.802;9.944;2023-07-31T09:05:49;12.10;;;11.40;;
5456;SDS011;2751;49.802;9.944;2023-07-31T09:08:19;14.23;;;12.77;;
5456;SDS011;2751;49.802;9.944;2023-07-31T09:10:47;12.93;;;12.03;;
5456;SDS011;2751;49.802;9.944;2023-07-31T09:13:15;13.27;;;12.37;;
5456;SDS011;2751;49.802;9.944;2023-07-31T09:15:43;13.47;;;12.53;;
5456;SDS011;2751;49.802;9.944;2023-07-31T09:18:12;13.20;;;12.40;;
5456;SDS011;2751;49.802;9.944;2023-07-31T09:20:39;13.70;;;12.70;;
5456;SDS011;2751;49.802;9.944;2023-07-31T09:23:06;13.43;;;12.53;;
5456;SDS011;2751;49.802;9.944;2023-07-31T09:25:36;12.97;;;12.10;;
5456;SDS011;2751;49.802;9.944;2023-07-31T09:28:04;13.23;;;12.20;;
5456;SDS011;2751;49.802;9.944;2023-07-31T09:30:43;13.43;;;12.43;;
5456;SDS011;2751;49.802;9.944;2023-07-31T09:33:11;13.10;;;12.40;;
5456;SDS011;2751;49.802;9.944;2023-07-31T09:35:38;13.07;;;12.07;;
5456;SDS011;2751;49.802;9.944;2023-07-31T09:38:06;13.03;;;12.23;;
5456;SDS011;2751;49.802;9.944;2023-07-31T09:40:37;13.57;;;12.47;;
5456;SDS011;2751;49.802;9.944;2023-07-31T09:43:06;12.83;;;11.93;;
5456;SDS011;2751;49.802;9.944;2023-07-31T09:45:35;14.13;;;12.80;;
5456;SDS011;2751;49.802;9.944;2023-07-31T09:48:03;14.17;;;12.93;;
5456;SDS011;2751;49.802;9.944;2023-07-31T09:50:34;14.17;;;13.17;;
5456;SDS011;2751;49.802;9.944;2023-07-31T09:53:03;13.37;;;12.57;;
5456;SDS011;2751;49.802;9.944;2023-07-31T09:55:31;14.07;;;13.07;;
5456;SDS011;2751;49.802;9.944;2023-07-31T09:58:00;13.63;;;12.83;;
5456;SDS011;2751;49.802;9.944;2023-07-31T10:00:30;13.37;;;12.57;;
5456;SDS011;2751;49.802;9.944;2023-07-31T10:02:58;13.70;;;12.60;;
5456;SDS011;2751;49.802;9.944;2023-07-31T10:05:27;13.43;;;12.63;;
5456;SDS011;2751;49.802;9.944;2023-07-31T10:07:57;12.97;;;12.17;;
5456;SDS011;2751;49.802;9.944;2023-07-31T10:10:24;13.10;;;12.30;;
5456;SDS011;2751;49.802;9.944;2023-07-31T10:12:52;13.37;;;12.50;;
5456;SDS011;2751;49.802;9.944;2023-07-31T10:15:21;13.33;;;12.20;;
5456;SDS011;2751;49.802;9.944;2023-07-31T10:17:49;13.63;;;12.73;;
5456;SDS011;2751;49.802;9.944;2023-07-31T10:20:16;12.70;;;11.60;;
5456;SDS011;2751;49.802;9.944;2023-07-31T10:22:43;14.60;;;13.10;;
5456;SDS011;2751;49.802;9.944;2023-07-31T10:25:12;12.67;;;11.87;;
5456;SDS011;2751;49.802;9.944;2023-07-31T10:27:39;13.60;;;12.70;;
5456;SDS011;2751;49.802;9.944;2023-07-31T10:30:07;13.90;;;12.80;;
5456;SDS011;2751;49.802;9.944;2023-07-31T10:32:38;14.00;;;12.90;;
5456;SDS011;2751;49.802;9.944;2023-07-31T10:35:08;13.83;;;12.80;;
5456;SDS011;2751;49.802;9.944;2023-07-31T10:37:36;13.47;;;12.47;;
5456;SDS011;2751;49.802;9.944;2023-07-31T10:40:05;14.13;;;13.17;;
5456;SDS011;2751;49.802;9.944;2023-07-31T10:42:45;13.00;;;11.97;;
5456;SDS011;2751;49.802;9.944;2023-07-31T10:45:14;13.23;;;12.13;;
5456;SDS011;2751;49.802;9.944;2023-07-31T10:47:57;14.40;;;13.00;;
5456;SDS011;2751;49.802;9.944;2023-07-31T10:50:27;14.00;;;12.83;;
5456;SDS011;2751;49.802;9.944;2023-07-31T10:52:55;13.50;;;12.60;;
5456;SDS011;2751;49.802;9.944;2023-07-31T10:55:24;13.50;;;12.50;;
5456;SDS011;2751;49.802;9.944;2023-07-31T10:57:53;13.63;;;12.70;;
5456;SDS011;2751;49.802;9.944;2023-07-31T11:00:22;13.90;;;12.80;;
5456;SDS011;2751;49.802;9.944;2023-07-31T11:02:59;14.07;;;13.17;;
5456;SDS011;2751;49.802;9.944;2023-07-31T11:08:17;13.60;;;12.70;;
5456;SDS011;2751;49.802;9.944;2023-07-31T11:10:46;13.77;;;12.73;;
5456;SDS011;2751;49.802;9.944;2023-07-31T11:13:13;13.23;;;12.33;;
5456;SDS011;2751;49.802;9.944;2023-07-31T11:15:40;13.50;;;12.60;;
5456;SDS011;2751;49.802;9.944;2023-07-31T11:18:09;13.47;;;12.57;;
5456;SDS011;2751;49.802;9.944;2023-07-31T11:20:36;14.20;;;13.13;;
5456;SDS011;2751;49.802;9.944;2023-07-31T11:23:06;13.50;;;12.50;;
5456;SDS011;2751;49.802;9.944;2023-07-31T11:25:35;13.80;;;12.97;;
5456;SDS011;2751;49.802;9.944;2023-07-31T11:28:03;13.93;;;13.03;;
5456;SDS011;2751;49.802;9.944;2023-07-31T11:30:31;14.37;;;13.20;;
5456;SDS011;2751;49.802;9.944;2023-07-31T11:33:01;13.33;;;12.43;;
5456;SDS011;2751;49.802;9.944;2023-07-31T11:35:31;14.30;;;13.00;;
5456;SDS011;2751;49.802;9.944;2023-07-31T11:37:58;13.93;;;13.03;;
5456;SDS011;2751;49.802;9.944;2023-07-31T11:40:26;13.60;;;12.70;;
5456;SDS011;2751;49.802;9.944;2023-07-31T11:42:55;14.70;;;13.10;;
5456;SDS011;2751;49.802;9.944;2023-07-31T11:45:24;12.90;;;12.10;;
5456;SDS011;2751;49.802;9.944;2023-07-31T11:47:54;13.80;;;12.80;;
5456;SDS011;2751;49.802;9.944;2023-07-31T11:50:22;13.40;;;12.40;;
5456;SDS011;2751;49.802;9.944;2023-07-31T11:52:53;13.67;;;12.63;;
5456;SDS011;2751;49.802;9.944;2023-07-31T11:55:23;12.90;;;12.20;;
5456;SDS011;2751;49.802;9.944;2023-07-31T11:57:50;12.73;;;11.93;;
5456;SDS011;2751;49.802;9.944;2023-07-31T12:00:19;13.20;;;12.30;;
5456;SDS011;2751;49.802;9.944;2023-07-31T12:02:46;13.63;;;12.53;;
5456;SDS011;2751;49.802;9.944;2023-07-31T12:05:13;13.57;;;12.60;;
5456;SDS011;2751;49.802;9.944;2023-07-31T12:07:44;13.00;;;12.20;;
5456;SDS011;2751;49.802;9.944;2023-07-31T12:10:26;12.90;;;11.90;;
5456;SDS011;2751;49.802;9.944;2023-07-31T12:13:01;12.73;;;12.00;;
5456;SDS011;2751;49.802;9.944;2023-07-31T12:15:35;14.27;;;13.27;;
5456;SDS011;2751;49.802;9.944;2023-07-31T12:18:04;15.97;;;14.73;;
5456;SDS011;2751;49.802;9.944;2023-07-31T12:20:32;13.17;;;12.37;;
5456;SDS011;2751;49.802;9.944;2023-07-31T12:23:00;14.00;;;13.10;;
5456;SDS011;2751;49.802;9.944;2023-07-31T12:25:32;13.67;;;12.50;;
5456;SDS011;2751;49.802;9.944;2023-07-31T12:28:04;13.60;;;12.50;;
5456;SDS011;2751;49.802;9.944;2023-07-31T12:30:36;13.40;;;12.50;;
5456;SDS011;2751;49.802;9.944;2023-07-31T12:33:04;13.60;;;12.80;;
5456;SDS011;2751;49.802;9.944;2023-07-31T12:35:36;13.40;;;12.57;;
5456;SDS011;2751;49.802;9.944;2023-07-31T12:38:04;13.70;;;12.80;;
5456;SDS011;2751;49.802;9.944;2023-07-31T12:40:33;14.00;;;12.97;;
5456;SDS011;2751;49.802;9.944;2023-07-31T12:43:02;13.63;;;12.73;;
5456;SDS011;2751;49.802;9.944;2023-07-31T12:45:29;14.00;;;13.00;;
5456;SDS011;2751;49.802;9.944;2023-07-31T12:47:56;14.43;;;13.33;;
5456;SDS011;2751;49.802;9.944;2023-07-31T12:50:23;12.67;;;11.97;;
5456;SDS011;2751;49.802;9.944;2023-07-31T12:52:50;13.10;;;12.40;;
5456;SDS011;2751;49.802;9.944;2023-07-31T12:55:18;13.70;;;12.80;;
5456;SDS011;2751;49.802;9.944;2023-07-31T13:01:09;15.00;;;13.70;;
5456;SDS011;2751;49.802;9.944;2023-07-31T13:03:35;14.13;;;13.33;;
5456;SDS011;2751;49.802;9.944;2023-07-31T13:06:03;14.40;;;13.20;;
5456;SDS011;2751;49.802;9.944;2023-07-31T13:08:30;13.63;;;12.73;;
5456;SDS011;2751;49.802;9.944;2023-07-31T13:10:57;13.47;;;12.17;;
5456;SDS011;2751;49.802;9.944;2023-07-31T13:13:24;13.17;;;12.27;;
5456;SDS011;2751;49.802;9.944;2023-07-31T13:15:51;13.87;;;12.87;;
5456;SDS011;2751;49.802;9.944;2023-07-31T13:18:19;12.87;;;12.07;;
5456;SDS011;2751;49.802;9.944;2023-07-31T13:20:46;13.57;;;12.57;;
5456;SDS011;2751;49.802;9.944;2023-07-31T13:23:13;14.43;;;13.10;;
5456;SDS011;2751;49.802;9.944;2023-07-31T13:25:40;13.80;;;12.70;;
5456;SDS011;2751;49.802;9.944;2023-07-31T13:28:07;12.60;;;11.80;;
5456;SDS011;2751;49.802;9.944;2023-07-31T13:30:34;13.27;;;12.30;;
5456;SDS011;2751;49.802;9.944;2023-07-31T13:33:00;13.07;;;12.17;;
5456;SDS011;2751;49.802;9.944;2023-07-31T13:35:29;13.63;;;12.80;;
5456;SDS011;2751;49.802;9.944;2023-07-31T13:37:56;14.20;;;13.20;;
5456;SDS011;2751;49.802;9.944;2023-07-31T13:40:23;13.60;;;12.80;;
5456;SDS011;2751;49.802;9.944;2023-07-31T13:42:50;13.60;;;12.50;;
5456;SDS011;2751;49.802;9.944;2023-07-31T13:45:17;13.93;;;12.93;;
5456;SDS011;2751;49.802;9.944;2023-07-31T13:47:44;13.60;;;12.70;;
5456;SDS011;2751;49.802;9.944;2023-07-31T13:50:11;13.73;;;12.80;;
5456;SDS011;2751;49.802;9.944;2023-07-31T13:52:39;14.07;;;13.17;;
5456;SDS011;2751;49.802;9.944;2023-07-31T13:55:06;13.07;;;12.27;;
5456;SDS011;2751;49.802;9.944;2023-07-31T13:57:34;13.70;;;12.70;;
5456;SDS011;2751;49.802;9.944;2023-07-31T14:00:01;15.33;;;13.80;;
5456;SDS011;2751;49.802;9.944;2023-07-31T14:02:29;14.27;;;13.37;;
5456;SDS011;2751;49.802;9.944;2023-07-31T14:04:56;13.50;;;12.80;;
5456;SDS011;2751;49.802;9.944;2023-07-31T14:07:23;14.50;;;13.60;;
5456;SDS011;2751;49.802;9.944;2023-07-31T14:09:51;14.40;;;13.20;;
5456;SDS011;2751;49.802;9.944;2023-07-31T14:12:18;13.73;;;12.83;;
5456;SDS011;2751;49.802;9.944;2023-07-31T14:14:45;13.73;;;12.83;;
5456;SDS011;2751;49.802;9.944;2023-07-31T14:17:13;13.30;;;12.40;;
5456;SDS011;2751;49.802;9.944;2023-07-31T14:19:41;14.33;;;13.33;;
5456;SDS011;2751;49.802;9.944;2023-07-31T14:22:08;13.77;;;12.97;;
5456;SDS011;2751;49.802;9.944;2023-07-31T14:24:35;14.07;;;12.87;;
5456;SDS011;2751;49.802;9.944;2023-07-31T14:27:03;14.67;;;13.40;;
5456;SDS011;2751;49.802;9.944;2023-07-31T14:29:31;13.40;;;12.60;;
5456;SDS011;2751;49.802;9.944;2023-07-31T14:31:58;13.23;;;12.40;;
5456;SDS011;2751;49.802;9.944;2023-07-31T14:34:25;14.77;;;13.37;;
5456;SDS011;2751;49.802;9.944;2023-07-31T14:36:51;14.43;;;13.40;;
5456;SDS011;2751;49.802;9.944;2023-07-31T14:39:18;14.13;;;13.23;;
5456;SDS011;2751;49.802;9.944;2023-07-31T14:41:45;14.77;;;13.67;;
5456;SDS011;2751;49.802;9.944;2023-07-31T14:44:14;14.50;;;13.10;;
5456;SDS011;2751;49.802;9.944;2023-07-31T14:46:41;14.00;;;13.00;;
5456;SDS011;2751;49.802;9.944;2023-07-31T14:49:08;13.93;;;12.93;;
5456;SDS011;2751;49.802;9.944;2023-07-31T14:51:35;13.60;;;12.80;;
5456;SDS011;2751;49.802;9.944;2023-07-31T14:54:02;13.20;;;12.40;;
5456;SDS011;2751;49.802;9.944;2023-07-31T14:56:28;14.10;;;13.10;;
5456;SDS011;2751;49.802;9.944;2023-07-31T14:58:55;14.20;;;13.30;;